Terminal Aerodrome Forecast
Issued by NWS

Home | Current Version | Previous Version | Text Only | Print | Product List | Glossary On
Versions: 1 2 3 4 5 6 7 8 9 10 11 12 13 14 15
000
FTUS44 KLZK 182340
TAFADF
TAF
KADF 182340Z 1900/1924 09006KT P6SM OVC007
      TEMPO 1900/1904 5SM BR
     FM190400 VRB03KT 3SM BR OVC005
     FM191000 VRB02KT 1SM -DZ BR OVC002
     FM191600 VRB05KT 4SM BR OVC007
     FM192000 21005KT P6SM OVC015=

USA.gov is the U.S. government's official web portal to all federal, state and local government web resources and services.